Time;durP1;ratioP1;P1;durP2;ratioP2;P2;SDS_P1;SDS_P2;PMS_P1;PMS_P2;Temp;Humidity;BMP_temperature;BMP_pressure;BME280_temperature;BME280_humidity;BME280_pressure;Samples;Min_cycle;Max_cycle;Signal;HPM_P1;HPM_P2
2023/11/07 00:02:10;;;;;;;8.70;4.32;;;;;;;8.65;100.00;100336.44;4870374;29;20044;-74
2023/11/07 00:04:36;;;;;;;10.32;5.10;;;;;;;8.65;100.00;100336.44;4894938;29;20040;-73
2023/11/07 00:07:02;;;;;;;10.10;4.75;;;;;;;8.62;100.00;100342.31;4883504;29;20036;-72
2023/11/07 00:09:28;;;;;;;9.68;5.22;;;;;;;8.63;100.00;100348.47;4895893;29;20490;-73
2023/11/07 00:11:53;;;;;;;10.57;4.90;;;;;;;8.62;100.00;100333.53;4900999;29;20050;-74
2023/11/07 00:14:21;;;;;;;9.25;4.68;;;;;;;8.60;100.00;100343.63;4903792;29;20048;-74
2023/11/07 00:16:48;;;;;;;10.00;4.57;;;;;;;8.60;100.00;100338.31;4886513;29;20422;-75
2023/11/07 00:19:13;;;;;;;7.90;4.45;;;;;;;8.60;100.00;100338.31;4900604;29;20055;-73
2023/11/07 00:21:39;;;;;;;11.88;4.63;;;;;;;8.60;100.00;100346.31;4886503;29;20040;-74
2023/11/07 00:24:05;;;;;;;11.32;5.05;;;;;;;8.61;100.00;100345.28;4904649;29;20080;-73
2023/11/07 00:26:31;;;;;;;6.93;4.22;;;;;;;8.61;100.00;100347.94;4899688;29;20104;-74
2023/11/07 00:28:57;;;;;;;8.15;4.88;;;;;;;8.57;100.00;100352.19;4874586;29;20044;-74
2023/11/07 00:31:23;;;;;;;9.90;4.43;;;;;;;8.55;100.00;100357.81;4894438;29;20049;-75
2023/11/07 00:33:49;;;;;;;10.65;4.80;;;;;;;8.51;100.00;100358.59;4881866;29;20044;-74
2023/11/07 00:36:16;;;;;;;9.68;4.80;;;;;;;8.47;100.00;100361.81;4901877;29;20048;-75
2023/11/07 00:38:42;;;;;;;8.77;4.93;;;;;;;8.46;100.00;100365.50;4886699;29;20112;-73
2023/11/07 00:41:08;;;;;;;12.13;4.32;;;;;;;8.42;100.00;100369.78;4868751;29;20028;-74
2023/11/07 00:43:37;;;;;;;7.90;4.28;;;;;;;8.42;100.00;100369.78;4881068;29;20036;-74
2023/11/07 00:46:03;;;;;;;6.53;3.92;;;;;;;8.38;100.00;100367.91;4905230;29;20040;-72
2023/11/07 00:48:29;;;;;;;;;;;;;;;8.34;100.00;100367.63;4873956;29;20047;-73
2023/11/07 00:50:55;;;;;;;9.25;3.90;;;;;;;8.34;100.00;100375.63;4907285;29;19919;-74
2023/11/07 00:53:20;;;;;;;10.45;4.50;;;;;;;8.29;100.00;100375.59;4884605;29;20068;-74
2023/11/07 00:55:47;;;;;;;7.68;3.97;;;;;;;8.29;100.00;100370.25;4888602;29;20127;-73
2023/11/07 00:58:13;;;;;;;9.45;4.30;;;;;;;8.27;100.00;100372.41;4870728;29;20048;-73
2023/11/07 01:00:38;;;;;;;7.68;3.90;;;;;;;8.24;100.00;100383.59;4886163;29;20044;-74
2023/11/07 01:03:04;;;;;;;8.52;3.92;;;;;;;8.18;100.00;100374.75;4880389;29;20837;-75
2023/11/07 01:05:30;;;;;;;7.32;4.65;;;;;;;8.19;100.00;100380.88;4866517;29;20494;-73
2023/11/07 01:07:55;;;;;;;8.90;4.50;;;;;;;8.19;100.00;100388.88;4899937;29;20581;-73
2023/11/07 01:10:21;;;;;;;9.43;3.97;;;;;;;8.19;100.00;100391.56;4896187;29;20037;-73
2023/11/07 01:12:47;;;;;;;6.93;4.00;;;;;;;8.18;100.00;100388.09;4887142;29;20376;-73
2023/11/07 01:15:13;;;;;;;11.82;4.07;;;;;;;8.18;100.00;100390.75;4889992;29;20514;-74
2023/11/07 01:17:40;;;;;;;8.00;3.78;;;;;;;8.19;100.00;100394.22;4877261;29;20047;-73
2023/11/07 01:20:07;;;;;;;9.13;3.90;;;;;;;8.20;100.00;100394.00;4882714;29;20679;-73
2023/11/07 01:22:32;;;;;;;10.98;4.50;;;;;;;8.24;100.00;100402.25;4886136;29;20138;-74
2023/11/07 01:24:59;;;;;;;6.88;3.70;;;;;;;8.27;100.00;100398.28;4858987;29;20048;-73
2023/11/07 01:27:25;;;;;;;11.65;3.72;;;;;;;8.30;100.00;100397.75;4899575;29;20051;-74
2023/11/07 01:29:51;;;;;;;;;;;;;;;8.28;100.00;100397.22;4897771;29;20499;-74
2023/11/07 01:32:19;;;;;;;13.00;4.30;;;;;;;8.29;100.00;100399.59;4896680;29;20289;-74
2023/11/07 01:34:45;;;;;;;8.43;4.13;;;;;;;8.34;100.00;100393.50;4902284;29;20701;-74
2023/11/07 01:37:10;;;;;;;8.65;4.10;;;;;;;8.35;100.00;100406.59;4895579;29;20075;-73
2023/11/07 01:39:36;;;;;;;10.00;5.38;;;;;;;8.36;100.00;100410.88;4901153;29;20040;-75
2023/11/07 01:42:03;;;;;;;7.40;4.10;;;;;;;8.38;100.00;100413.25;4884414;29;20060;-73
2023/11/07 01:44:29;;;;;;;10.13;4.95;;;;;;;8.40;100.00;100409.28;4906812;29;20039;-76
2023/11/07 01:46:56;;;;;;;10.05;4.85;;;;;;;8.44;100.00;100421.03;4913808;29;20040;-73
2023/11/07 01:49:24;;;;;;;9.85;4.50;;;;;;;8.46;100.00;100423.41;4874617;29;20052;-72
2023/11/07 01:51:50;;;;;;;10.10;4.25;;;;;;;8.44;100.00;100415.69;4884457;29;20044;-74
2023/11/07 01:54:17;;;;;;;8.85;4.50;;;;;;;8.50;100.00;100421.03;4900082;29;20044;-73
2023/11/07 01:56:43;;;;;;;;;;;;;;;8.53;100.00;100423.16;4889059;29;20127;-74
2023/11/07 01:59:09;;;;;;;12.75;4.63;;;;;;;8.53;100.00;100420.50;4900881;29;19996;-74
2023/11/07 02:01:36;;;;;;;;;;;;;;;8.56;100.00;100409.31;4905690;29;20039;-73
2023/11/07 02:04:02;;;;;;;11.45;5.13;;;;;;;8.55;100.00;100405.06;4891104;29;19919;-75
2023/11/07 02:06:29;;;;;;;9.75;4.93;;;;;;;8.56;100.00;100417.31;4902784;29;20119;-75
2023/11/07 02:08:56;;;;;;;10.32;4.43;;;;;;;8.55;100.00;100410.38;4906554;29;20115;-74
2023/11/07 02:11:25;;;;;;;10.35;4.60;;;;;;;8.54;100.00;100420.25;4891127;29;20040;-73
2023/11/07 02:13:50;;;;;;;10.75;4.82;;;;;;;8.55;100.00;100410.38;4885465;29;20111;-75
2023/11/07 02:16:17;;;;;;;;;;;;;;;8.55;100.00;100418.41;4899607;29;20040;-74
2023/11/07 02:18:43;;;;;;;10.07;4.80;;;;;;;8.53;100.00;100409.81;4900130;29;19930;-74
2023/11/07 02:21:08;;;;;;;11.93;4.35;;;;;;;8.50;100.00;100418.38;4870118;29;20814;-74
2023/11/07 02:23:34;;;;;;;12.60;4.63;;;;;;;8.46;100.00;100413.53;4887662;29;20628;-72
2023/11/07 02:26:00;;;;;;;10.82;4.50;;;;;;;8.42;100.00;100412.50;4889596;29;20031;-72
2023/11/07 02:28:26;;;;;;;8.65;3.90;;;;;;;8.40;100.00;100422.63;4906837;29;20546;-73
2023/11/07 02:30:51;;;;;;;10.63;4.47;;;;;;;8.37;100.00;100415.13;4889183;29;20125;-74
2023/11/07 02:33:19;;;;;;;11.35;4.70;;;;;;;8.34;100.00;100420.97;4901557;29;20040;-74
2023/11/07 02:35:45;;;;;;;10.32;4.38;;;;;;;8.34;100.00;100425.50;4875009;29;20063;-74
2023/11/07 02:38:12;;;;;;;9.25;4.55;;;;;;;8.31;100.00;100426.81;4885159;29;20702;-74
2023/11/07 02:40:38;;;;;;;10.98;4.43;;;;;;;8.32;100.00;100433.75;4901339;29;20047;-71
2023/11/07 02:43:04;;;;;;;8.23;4.88;;;;;;;8.30;100.00;100435.88;4898793;29;20035;-74
2023/11/07 02:45:36;;;;;;;9.10;4.13;;;;;;;8.27;100.00;100436.44;4885111;29;20406;-74
2023/11/07 02:48:03;;;;;;;11.25;4.00;;;;;;;8.27;100.00;100439.09;4882363;29;20315;-72
2023/11/07 02:50:29;;;;;;;8.45;4.18;;;;;;;8.28;100.00;100439.91;4896420;29;20059;-72
2023/11/07 02:52:55;;;;;;;10.15;4.28;;;;;;;8.28;100.00;100435.38;4871733;29;20095;-74
2023/11/07 02:55:20;;;;;;;13.57;4.15;;;;;;;8.33;100.00;100439.88;4903165;29;20048;-76
2023/11/07 02:57:48;;;;;;;12.93;4.70;;;;;;;8.36;100.00;100440.22;4896813;29;20526;-74
2023/11/07 03:00:14;;;;;;;9.55;4.13;;;;;;;8.38;100.00;100439.94;4868466;29;20048;-73
2023/11/07 03:02:39;;;;;;;7.00;4.32;;;;;;;8.37;100.00;100439.16;4904468;29;20040;-73
2023/11/07 03:05:06;;;;;;;;;;;;;;;8.37;100.00;100441.00;4885602;29;20063;-73
2023/11/07 03:07:33;;;;;;;10.82;3.55;;;;;;;8.37;100.00;100433.00;4883186;29;20063;-73
2023/11/07 03:10:03;;;;;;;8.55;4.32;;;;;;;8.38;100.00;100438.06;4875845;29;20047;-73
2023/11/07 03:12:30;;;;;;;11.43;4.57;;;;;;;8.40;100.00;100435.13;4887673;29;20036;-72
2023/11/07 03:14:57;;;;;;;12.52;4.22;;;;;;;8.39;100.00;100439.69;4885761;29;20391;-74
2023/11/07 03:17:24;;;;;;;13.18;3.83;;;;;;;8.39;100.00;100433.53;4888177;29;20044;-73
2023/11/07 03:19:53;;;;;;;7.40;3.83;;;;;;;8.41;100.00;100439.44;4903844;29;20130;-72
2023/11/07 03:22:20;;;;;;;8.95;4.28;;;;;;;8.40;100.00;100440.47;4886802;29;20499;-74
2023/11/07 03:24:47;;;;;;;9.00;4.00;;;;;;;8.40;100.00;100441.31;4900695;29;20036;-73
2023/11/07 03:27:13;;;;;;;8.30;3.70;;;;;;;8.42;100.00;100438.38;4866933;29;20098;-72
2023/11/07 03:29:39;;;;;;;8.88;4.78;;;;;;;8.42;100.00;100438.38;4900275;29;20522;-73
2023/11/07 03:32:06;;;;;;;8.95;4.10;;;;;;;8.41;100.00;100450.91;4893611;29;20036;-73
2023/11/07 03:34:32;;;;;;;;;;;;;;;8.40;100.00;100443.97;4877614;29;20043;-72
2023/11/07 03:36:59;;;;;;;9.48;3.55;;;;;;;8.40;100.00;100445.81;4908482;29;19926;-74
2023/11/07 03:39:24;;;;;;;10.13;4.30;;;;;;;8.42;100.00;100449.84;4873935;29;20032;-76
2023/11/07 03:41:51;;;;;;;11.20;4.93;;;;;;;8.43;100.00;100447.97;4905451;29;20566;-73
2023/11/07 03:44:17;;;;;;;11.60;4.32;;;;;;;8.42;100.00;100444.50;4878847;29;20044;-72
2023/11/07 03:46:42;;;;;;;;;;;;;;;8.41;100.00;100437.56;4903305;29;20060;-72
2023/11/07 03:49:09;;;;;;;9.85;3.97;;;;;;;8.40;100.00;100456.50;4900553;29;19965;-74
2023/11/07 03:51:35;;;;;;;9.00;4.05;;;;;;;8.40;100.00;100457.31;4892187;29;20044;-73
2023/11/07 03:54:02;;;;;;;10.25;4.35;;;;;;;8.40;100.00;100465.31;4906325;29;20050;-75
2023/11/07 03:56:28;;;;;;;9.43;4.60;;;;;;;8.42;100.00;100459.72;4880348;29;20044;-74
2023/11/07 03:58:54;;;;;;;14.25;4.35;;;;;;;8.43;100.00;100462.13;4908910;29;20040;-73
2023/11/07 04:01:20;;;;;;;;;;;;;;;8.44;100.00;100463.72;4886648;29;20036;-75
2023/11/07 04:03:46;;;;;;;10.25;4.93;;;;;;;8.47;100.00;100462.41;4908005;29;19954;-75
2023/11/07 04:06:12;;;;;;;10.68;4.50;;;;;;;8.47;100.00;100463.22;4889365;29;20060;-72
2023/11/07 04:08:38;;;;;;;9.38;4.68;;;;;;;8.48;100.00;100464.81;4890085;29;20036;-72
2023/11/07 04:11:04;;;;;;;14.98;5.25;;;;;;;8.51;100.00;100460.00;4903640;29;20125;-74
2023/11/07 04:13:30;;;;;;;;;;;;;;;8.51;100.00;100463.47;4884093;29;20067;-73
2023/11/07 04:15:57;;;;;;;10.15;4.13;;;;;;;8.51;100.00;100460.81;4869750;29;20026;-75
2023/11/07 04:18:23;;;;;;;8.73;5.05;;;;;;;8.52;100.00;100461.59;4903145;29;20095;-72
2023/11/07 04:20:50;;;;;;;8.65;4.80;;;;;;;8.52;100.00;100469.63;4889069;29;20074;-73
2023/11/07 04:23:16;;;;;;;9.85;5.20;;;;;;;8.52;100.00;100474.94;4907305;29;20040;-73
2023/11/07 04:25:42;;;;;;;9.57;5.70;;;;;;;8.52;100.00;100472.28;4904916;29;20047;-74
2023/11/07 04:28:09;;;;;;;13.63;5.47;;;;;;;8.51;100.00;100481.34;4886657;29;20032;-73
2023/11/07 04:30:35;;;;;;;9.75;4.68;;;;;;;8.52;100.00;100483.75;4886471;29;20081;-72
2023/11/07 04:33:00;;;;;;;11.98;5.35;;;;;;;8.53;100.00;100476.56;4907759;29;20074;-74
2023/11/07 04:35:27;;;;;;;14.40;5.05;;;;;;;8.54;100.00;100478.19;4897182;29;20040;-73
2023/11/07 04:37:55;;;;;;;10.20;4.60;;;;;;;8.57;100.00;100477.66;4903565;29;20044;-73
2023/11/07 04:40:21;;;;;;;12.00;5.38;;;;;;;8.57;100.00;100480.31;4890983;29;20031;-74
2023/11/07 04:42:47;;;;;;;12.82;5.10;;;;;;;8.57;100.00;100485.66;4899920;29;20044;-74
2023/11/07 04:45:13;;;;;;;12.95;5.35;;;;;;;8.58;100.00;100479.25;4902821;29;20043;-73
2023/11/07 04:47:39;;;;;;;10.73;4.70;;;;;;;8.60;100.00;100482.44;4887652;29;20044;-73
2023/11/07 04:50:06;;;;;;;8.13;4.40;;;;;;;8.58;100.00;100492.59;4905360;29;20099;-73
2023/11/07 04:52:35;;;;;;;8.25;4.93;;;;;;;8.60;100.00;100493.94;4888494;29;20103;-73
2023/11/07 04:55:01;;;;;;;8.93;5.07;;;;;;;8.59;100.00;100486.19;4881163;29;20035;-74
2023/11/07 04:57:27;;;;;;;9.55;5.00;;;;;;;8.60;100.00;100493.94;4905336;29;20039;-73
2023/11/07 04:59:54;;;;;;;10.20;5.63;;;;;;;8.60;100.00;100498.47;4887220;29;20058;-73
2023/11/07 05:02:20;;;;;;;12.05;5.20;;;;;;;8.61;100.00;100484.06;4902978;29;20048;-74
2023/11/07 05:04:46;;;;;;;14.13;5.15;;;;;;;8.61;100.00;100484.88;4899449;29;20073;-72
2023/11/07 05:07:13;;;;;;;12.35;5.63;;;;;;;8.61;100.00;100492.88;4870891;29;20127;-74
2023/11/07 05:09:39;;;;;;;11.32;5.30;;;;;;;8.60;100.00;100477.94;4876375;29;20043;-75
2023/11/07 05:12:05;;;;;;;10.13;5.50;;;;;;;8.62;100.00;100485.69;4906245;29;20044;-73
2023/11/07 05:14:32;;;;;;;11.07;5.65;;;;;;;8.62;100.00;100477.66;4894447;29;20044;-74
2023/11/07 05:16:58;;;;;;;10.75;6.70;;;;;;;8.62;100.00;100483.81;4884986;29;20071;-73
2023/11/07 05:19:25;;;;;;;13.48;5.50;;;;;;;8.63;100.00;100476.59;4905631;29;20065;-74
2023/11/07 05:21:51;;;;;;;13.90;5.80;;;;;;;8.63;100.00;100476.59;4902700;29;20032;-74
2023/11/07 05:24:17;;;;;;;15.50;6.10;;;;;;;8.63;100.00;100477.41;4905607;29;20049;-74
2023/11/07 05:26:46;;;;;;;12.90;5.90;;;;;;;8.61;100.00;100478.75;4906702;29;20036;-73
2023/11/07 05:29:13;;;;;;;9.73;5.28;;;;;;;8.59;100.00;100470.97;4886708;29;20543;-75
2023/11/07 05:31:39;;;;;;;11.10;5.90;;;;;;;8.61;100.00;100476.06;4905681;29;20522;-73
2023/11/07 05:34:06;;;;;;;12.77;6.10;;;;;;;8.61;100.00;100478.75;4905155;29;20075;-73
2023/11/07 05:36:33;;;;;;;13.02;6.35;;;;;;;8.63;100.00;100484.59;4903595;29;20039;-73
2023/11/07 05:38:58;;;;;;;12.23;6.18;;;;;;;8.63;100.00;100496.09;4903488;29;20040;-73
2023/11/07 05:41:25;;;;;;;11.52;5.28;;;;;;;8.63;100.00;100489.94;4888355;29;20614;-74
2023/11/07 05:43:52;;;;;;;16.65;6.55;;;;;;;8.64;100.00;100494.22;4870013;29;20052;-73
2023/11/07 05:46:18;;;;;;;11.40;6.22;;;;;;;8.66;100.00;100497.41;4905545;29;20047;-73
2023/11/07 05:48:44;;;;;;;12.85;6.15;;;;;;;8.65;100.00;100499.28;4906734;29;20044;-73
2023/11/07 05:51:11;;;;;;;13.80;6.00;;;;;;;8.66;100.00;100500.09;4902127;29;20028;-72
2023/11/07 05:53:36;;;;;;;11.48;5.22;;;;;;;8.64;100.00;100494.22;4905692;29;20502;-71
2023/11/07 05:56:02;;;;;;;11.30;5.32;;;;;;;8.63;100.00;100492.63;4903927;29;20127;-75
2023/11/07 05:58:29;;;;;;;14.25;5.95;;;;;;;8.60;100.00;100498.47;4888320;29;20171;-73
2023/11/07 06:00:55;;;;;;;11.27;5.85;;;;;;;8.56;100.00;100503.53;4899071;29;20028;-73
2023/11/07 06:03:21;;;;;;;9.85;5.40;;;;;;;8.51;100.00;100506.19;4887705;29;20881;-73
2023/11/07 06:05:47;;;;;;;9.27;4.97;;;;;;;8.48;100.00;100504.84;4901369;29;20122;-74
2023/11/07 06:08:12;;;;;;;12.00;5.13;;;;;;;8.46;100.00;100509.63;4888648;29;20040;-73
2023/11/07 06:10:38;;;;;;;15.63;5.22;;;;;;;8.43;100.00;100499.47;4871956;29;20044;-73
2023/11/07 06:13:05;;;;;;;15.50;5.15;;;;;;;8.40;100.00;100500.00;4905830;29;20058;-72
2023/11/07 06:15:33;;;;;;;12.82;5.13;;;;;;;8.38;100.00;100512.78;4872500;29;20135;-73
2023/11/07 06:17:59;;;;;;;7.68;4.68;;;;;;;8.38;100.00;100512.78;4885548;29;20055;-74
2023/11/07 06:20:25;;;;;;;12.45;5.57;;;;;;;8.35;100.00;100513.31;4896473;29;20660;-73
2023/11/07 06:22:51;;;;;;;12.60;5.13;;;;;;;8.36;100.00;100512.25;4876082;29;20044;-73
2023/11/07 06:25:18;;;;;;;10.88;4.68;;;;;;;8.37;100.00;100515.72;4885582;29;20044;-74
2023/11/07 06:27:44;;;;;;;11.45;4.40;;;;;;;8.37;100.00;100521.88;4898980;29;20078;-74
2023/11/07 06:30:10;;;;;;;11.45;4.95;;;;;;;8.41;100.00;100528.31;4903645;29;20118;-75
2023/11/07 06:32:37;;;;;;;11.90;4.80;;;;;;;8.43;100.00;100526.16;4887348;29;20128;-73
2023/11/07 06:35:06;;;;;;;14.35;5.45;;;;;;;8.46;100.00;100522.97;4872991;29;20035;-74
2023/11/07 06:37:35;;;;;;;14.68;4.60;;;;;;;8.48;100.00;100526.19;4887554;29;20064;-74
2023/11/07 06:40:13;;;;;;;11.40;5.68;;;;;;;8.50;100.00;100519.78;4904119;29;20116;-72
2023/11/07 06:42:43;;;;;;;11.10;4.90;;;;;;;8.51;100.00;100532.06;4901336;29;20188;-75
2023/11/07 06:45:12;;;;;;;15.38;5.53;;;;;;;8.51;100.00;100535.53;4901575;29;20036;-72
2023/11/07 06:47:42;;;;;;;14.05;5.07;;;;;;;8.55;100.00;100538.50;4886437;29;20080;-74
2023/11/07 06:50:10;;;;;;;14.20;5.65;;;;;;;8.56;100.00;100540.91;4885801;29;20037;-73
2023/11/07 06:52:54;;;;;;;12.68;5.30;;;;;;;8.58;100.00;100541.44;4899782;29;20102;-75
2023/11/07 06:55:25;;;;;;;12.57;5.28;;;;;;;8.62;100.00;100536.38;4905174;29;20521;-73
2023/11/07 06:57:52;;;;;;;12.85;5.70;;;;;;;8.65;100.00;100541.19;4904416;29;20032;-73
2023/11/07 07:00:21;;;;;;;8.43;4.70;;;;;;;8.67;100.00;100539.88;4903553;29;20039;-73
2023/11/07 07:02:48;;;;;;;14.07;5.28;;;;;;;8.70;100.00;100549.22;4885705;29;20133;-75
2023/11/07 07:05:15;;;;;;;12.25;5.18;;;;;;;8.71;100.00;100554.31;4904005;29;20095;-74
2023/11/07 07:07:41;;;;;;;13.40;5.22;;;;;;;8.75;100.00;100557.28;4887286;29;20036;-72
2023/11/07 07:10:09;;;;;;;14.30;5.20;;;;;;;8.78;100.00;100553.25;4887384;29;20055;-73
2023/11/07 07:12:35;;;;;;;12.73;5.32;;;;;;;8.79;100.00;100561.00;4888428;29;20039;-72
2023/11/07 07:15:07;;;;;;;9.93;4.72;;;;;;;8.83;100.00;100561.28;4886205;29;20131;-72
2023/11/07 07:17:33;;;;;;;12.90;5.43;;;;;;;8.84;100.00;100557.56;4909693;29;20043;-74
2023/11/07 07:19:59;;;;;;;10.40;4.82;;;;;;;8.86;100.00;100569.56;4902799;29;20028;-74
2023/11/07 07:22:27;;;;;;;11.25;5.15;;;;;;;8.88;100.00;100567.47;4868280;29;20040;-74
2023/11/07 07:25:05;;;;;;;10.55;5.07;;;;;;;8.91;100.00;100568.78;4884644;29;20075;-73
2023/11/07 07:27:33;;;;;;;12.88;4.10;;;;;;;8.91;100.00;100571.47;4880959;29;20046;-74
2023/11/07 07:30:00;;;;;;;9.40;5.07;;;;;;;8.92;100.00;100576.53;4902396;29;20585;-73
2023/11/07 07:32:28;;;;;;;10.50;4.55;;;;;;;8.95;100.00;100568.00;4901423;29;20119;-74
2023/11/07 07:34:55;;;;;;;11.25;4.72;;;;;;;8.96;100.00;100572.28;4903410;29;20040;-73
2023/11/07 07:37:20;;;;;;;14.32;5.35;;;;;;;8.97;100.00;100581.91;4883659;29;20127;-72
2023/11/07 07:39:46;;;;;;;14.15;5.28;;;;;;;8.99;100.00;100571.75;4906330;29;20114;-72
2023/11/07 07:42:12;;;;;;;10.15;4.43;;;;;;;9.03;100.00;100578.19;4878075;29;20036;-73
2023/11/07 07:44:38;;;;;;;11.77;4.28;;;;;;;9.03;100.00;100583.53;4888210;29;20109;-72
2023/11/07 07:47:04;;;;;;;9.80;5.00;;;;;;;9.04;100.00;100584.31;4885697;29;20413;-73
2023/11/07 07:49:30;;;;;;;10.25;4.70;;;;;;;9.06;100.00;100586.72;4903345;29;20032;-74
2023/11/07 07:52:01;;;;;;;9.75;5.38;;;;;;;9.06;100.00;100592.88;4899008;29;20042;-73
2023/11/07 07:54:29;;;;;;;11.20;4.57;;;;;;;9.09;100.00;100594.22;4897681;29;20119;-73
2023/11/07 07:56:55;;;;;;;11.05;4.47;;;;;;;9.11;100.00;100592.09;4884365;29;20092;-73
2023/11/07 07:59:25;;;;;;;9.88;4.93;;;;;;;9.11;100.00;100589.41;4871074;29;20041;-73
2023/11/07 08:01:55;;;;;;;12.80;4.57;;;;;;;9.12;100.00;100599.03;4884913;29;20063;-74
2023/11/07 08:04:26;;;;;;;10.52;4.55;;;;;;;9.16;100.00;100586.78;4888755;29;20036;-75
2023/11/07 08:06:52;;;;;;;10.50;4.35;;;;;;;9.22;100.00;100593.72;4883581;29;20044;-73
2023/11/07 08:09:18;;;;;;;;;;;;;;;9.23;100.00;100592.66;4867033;29;20128;-73
2023/11/07 08:11:47;;;;;;;9.90;4.72;;;;;;;9.25;100.00;100601.22;4896981;29;19924;-73
2023/11/07 08:14:14;;;;;;;17.90;4.72;;;;;;;9.28;100.00;100595.34;4886611;29;20114;-75
2023/11/07 08:16:41;;;;;;;14.20;4.68;;;;;;;9.28;100.00;100609.50;4900747;29;20036;-73
2023/11/07 08:19:09;;;;;;;9.38;4.90;;;;;;;9.28;100.00;100606.03;4891127;29;20039;-75
2023/11/07 08:21:41;;;;;;;11.93;4.88;;;;;;;9.30;100.00;100601.22;4889854;29;20047;-73
2023/11/07 08:24:07;;;;;;;9.65;5.13;;;;;;;9.34;100.00;100604.97;4906360;29;20040;-75
2023/11/07 08:26:35;;;;;;;;;;;;;;;9.36;100.00;100612.75;4900406;29;20163;-72
2023/11/07 08:29:19;;;;;;;9.57;4.68;;;;;;;9.38;100.00;100614.06;4897369;29;19946;-74
2023/11/07 08:31:45;;;;;;;9.65;4.13;;;;;;;9.42;100.00;100612.47;4873453;29;20131;-73
2023/11/07 08:34:11;;;;;;;12.57;4.53;;;;;;;9.50;100.00;100621.84;4905340;29;20047;-73
2023/11/07 08:36:38;;;;;;;;;;;;;;;9.49;100.00;100623.72;4889991;29;20383;-73
2023/11/07 08:39:05;;;;;;;8.80;4.43;;;;;;;9.48;100.00;100619.44;4905639;29;19979;-75
2023/11/07 08:41:32;;;;;;;11.57;4.22;;;;;;;9.48;100.00;100614.09;4906802;29;20028;-74
2023/11/07 08:43:58;;;;;;;13.48;4.40;;;;;;;9.51;100.00;100618.09;4890881;29;20087;-73
2023/11/07 08:46:24;;;;;;;8.32;4.45;;;;;;;9.51;100.00;100621.56;4902897;29;20071;-73
2023/11/07 08:48:51;;;;;;;9.25;3.90;;;;;;;9.53;100.00;100615.97;4891508;29;20135;-74
2023/11/07 08:51:17;;;;;;;8.95;4.65;;;;;;;9.56;100.00;100608.22;4872468;29;20051;-75
2023/11/07 08:53:43;;;;;;;7.70;4.20;;;;;;;9.64;100.00;100614.13;4889752;29;20066;-74
2023/11/07 08:56:12;;;;;;;;;;;;;;;9.69;100.00;100612.25;4901029;29;20078;-74
2023/11/07 08:58:39;;;;;;;10.70;4.30;;;;;;;9.72;100.00;100610.91;4902504;29;19966;-75
2023/11/07 09:01:04;;;;;;;7.93;5.22;;;;;;;9.75;100.00;100605.00;4905428;29;20066;-75
2023/11/07 09:03:31;;;;;;;8.65;3.45;;;;;;;9.75;100.00;100605.00;4888670;29;20036;-73
2023/11/07 09:05:56;;;;;;;;;;;;;;;9.76;100.00;100602.09;4901938;29;20035;-72
2023/11/07 09:08:23;;;;;;;8.02;3.28;;;;;;;9.78;100.00;100599.94;4891704;29;19926;-74
2023/11/07 09:10:49;;;;;;;9.75;3.88;;;;;;;9.82;100.00;100610.88;4905158;29;20032;-73
2023/11/07 09:13:15;;;;;;;8.63;3.75;;;;;;;9.83;100.00;100599.16;4886107;29;20403;-79
2023/11/07 09:15:43;;;;;;;8.10;4.10;;;;;;;9.88;100.00;100604.47;4898713;29;20448;-74
2023/11/07 09:18:10;;;;;;;10.88;4.20;;;;;;;9.93;100.00;100617.06;4888753;29;20095;-73
2023/11/07 09:20:37;;;;;;;8.80;3.40;;;;;;;10.00;100.00;100617.59;4889068;29;20028;-74
2023/11/07 09:23:04;;;;;;;8.15;3.67;;;;;;;10.05;100.00;100615.72;4901136;29;20506;-74
2023/11/07 09:25:30;;;;;;;6.50;3.13;;;;;;;10.12;100.00;100612.75;4898516;29;20037;-73
2023/11/07 09:27:56;;;;;;;9.43;3.58;;;;;;;10.13;100.00;100617.84;4900105;29;20036;-73
2023/11/07 09:30:22;;;;;;;13.55;3.30;;;;;;;10.12;100.00;100616.25;4906302;29;20723;-73
2023/11/07 09:32:48;;;;;;;9.65;4.10;;;;;;;10.19;100.00;100625.88;4902991;29;20151;-73
2023/11/07 09:35:14;;;;;;;8.02;3.70;;;;;;;10.32;100.00;100625.34;4870338;29;20048;-74
2023/11/07 09:37:40;;;;;;;9.32;3.70;;;;;;;10.39;100.00;100632.03;4905105;29;20092;-74
2023/11/07 09:40:10;;;;;;;7.60;3.65;;;;;;;10.42;100.00;100629.88;4903316;29;20043;-73
2023/11/07 09:42:48;;;;;;;6.25;3.47;;;;;;;10.45;100.00;100642.72;4888602;29;20075;-72
2023/11/07 09:45:16;;;;;;;6.85;2.92;;;;;;;10.46;100.00;100642.47;4900002;29;20426;-74
2023/11/07 09:47:49;;;;;;;7.30;3.65;;;;;;;10.44;100.00;100644.59;4903358;29;20487;-74
2023/11/07 09:50:19;;;;;;;7.85;3.90;;;;;;;10.43;100.00;100648.38;4869477;29;20080;-73
2023/11/07 09:52:47;;;;;;;6.93;3.28;;;;;;;10.48;100.00;100644.84;4891934;29;20119;-72
2023/11/07 09:55:16;;;;;;;6.18;3.60;;;;;;;10.47;100.00;100644.06;4873067;29;20114;-73
2023/11/07 09:57:57;;;;;;;9.50;3.20;;;;;;;10.51;100.00;100639.78;4892685;29;20043;-73
2023/11/07 10:00:25;;;;;;;7.47;3.40;;;;;;;10.50;100.00;100646.22;4876981;29;20036;-74
2023/11/07 10:02:52;;;;;;;8.57;3.10;;;;;;;10.50;100.00;100643.53;4903258;29;20519;-74
2023/11/07 10:05:20;;;;;;;7.63;2.97;;;;;;;10.51;100.00;100660.41;4883111;29;20051;-72
2023/11/07 10:07:48;;;;;;;6.70;2.53;;;;;;;10.52;100.00;100654.75;4875056;29;20040;-72
2023/11/07 10:10:16;;;;;;;6.70;3.72;;;;;;;10.59;100.00;100657.97;4881730;29;20040;-73
2023/11/07 10:12:43;;;;;;;7.78;3.25;;;;;;;10.58;100.00;100660.91;4898130;29;20040;-73
2023/11/07 10:15:16;;;;;;;7.88;3.40;;;;;;;10.56;100.00;100666.53;4883086;29;20040;-73
2023/11/07 10:17:58;;;;;;;8.43;3.00;;;;;;;10.53;100.00;100669.75;4874386;29;20046;-74
2023/11/07 10:20:25;;;;;;;7.50;2.55;;;;;;;10.46;100.00;100668.44;4885690;29;20068;-72
2023/11/07 10:22:51;;;;;;;7.45;3.58;;;;;;;10.39;100.00;100666.03;4882034;29;20035;-74
2023/11/07 10:25:29;;;;;;;9.43;3.67;;;;;;;10.41;100.00;100671.91;4901076;29;20054;-73
2023/11/07 10:28:08;;;;;;;8.48;2.92;;;;;;;10.36;100.00;100671.91;4901515;29;20132;-72
2023/11/07 10:30:42;;;;;;;6.55;3.67;;;;;;;10.30;100.00;100675.69;4888469;29;20051;-73
2023/11/07 10:33:09;;;;;;;8.52;4.07;;;;;;;10.22;100.00;100668.94;4901472;29;20299;-72
2023/11/07 10:35:55;;;;;;;8.43;4.20;;;;;;;10.19;100.00;100671.38;4905216;29;20446;-71
2023/11/07 10:38:22;;;;;;;5.65;3.67;;;;;;;10.18;100.00;100670.56;4902235;29;20041;-73
2023/11/07 10:40:49;;;;;;;6.90;3.45;;;;;;;10.16;100.00;100666.53;4900783;29;20549;-72
2023/11/07 10:43:36;;;;;;;9.68;3.92;;;;;;;10.19;100.00;100663.34;4884858;29;20618;-74
2023/11/07 10:46:03;;;;;;;8.60;3.28;;;;;;;10.25;100.00;100664.97;4885404;29;20055;-73
2023/11/07 10:48:33;;;;;;;7.82;3.20;;;;;;;10.29;100.00;100664.16;4900781;29;20033;-75
2023/11/07 10:51:05;;;;;;;6.80;3.53;;;;;;;10.34;100.00;100666.03;4887766;29;20076;-74
2023/11/07 10:53:34;;;;;;;5.00;2.88;;;;;;;10.46;100.00;100669.22;4896561;29;20031;-72
2023/11/07 10:56:03;;;;;;;5.05;3.20;;;;;;;10.55;100.00;100670.28;4897813;29;20178;-74
2023/11/07 10:58:33;;;;;;;4.32;2.97;;;;;;;10.60;100.00;100667.59;4883197;29;20396;-74
2023/11/07 11:01:06;;;;;;;4.90;3.13;;;;;;;10.76;100.00;100670.22;4906533;29;20067;-73
2023/11/07 11:03:34;;;;;;;6.10;3.30;;;;;;;10.94;100.00;100670.44;4903966;29;20071;-73
2023/11/07 11:06:02;;;;;;;5.38;2.42;;;;;;;11.13;100.00;100662.59;4913625;29;20048;-74
2023/11/07 11:08:31;;;;;;;4.15;2.30;;;;;;;11.29;100.00;100665.19;4880680;29;20048;-71
2023/11/07 11:11:00;;;;;;;6.28;3.00;;;;;;;11.40;100.00;100669.44;4889723;29;20044;-72
2023/11/07 11:13:26;;;;;;;6.93;2.80;;;;;;;11.42;100.00;100664.59;4898265;29;20037;-74
2023/11/07 11:15:53;;;;;;;6.13;2.30;;;;;;;11.36;100.00;100653.09;4887313;29;20031;-73
2023/11/07 11:18:27;;;;;;;4.85;2.90;;;;;;;11.28;100.00;100658.25;4897452;29;20044;-74
2023/11/07 11:21:08;;;;;;;4.53;2.65;;;;;;;11.27;100.00;100657.44;4868195;29;20035;-74
2023/11/07 11:23:53;;;;;;;5.07;2.70;;;;;;;11.23;100.00;100655.59;4884006;29;20036;-73
2023/11/07 11:26:31;;;;;;;4.68;2.22;;;;;;;11.19;100.00;100653.47;4900080;29;20043;-73